Time;durP1;ratioP1;P1;durP2;ratioP2;P2;SDS_P1;SDS_P2;PMS_P1;PMS_P2;Temp;Humidity;BMP_temperature;BMP_pressure;BME280_temperature;BME280_humidity;BME280_pressure;Samples;Min_cycle;Max_cycle;Signal;HPM_P1;HPM_P2
2023/07/29 00:01:58;;;;;;;5.45;2.90;;;;;;;21.58;44.59;94781.19;5036413;28;20357;-68
2023/07/29 00:04:23;;;;;;;2.90;2.60;;;;;;;21.61;44.77;94787.94;5028715;28;20222;-68
2023/07/29 00:06:49;;;;;;;3.10;2.80;;;;;;;21.82;44.07;94783.97;5035415;28;20301;-68
2023/07/29 00:09:14;;;;;;;4.28;2.60;;;;;;;21.81;43.67;94793.81;5039463;28;20214;-68
2023/07/29 00:11:40;;;;;;;4.50;2.65;;;;;;;21.83;43.43;94796.28;5033879;28;20269;-68
2023/07/29 00:14:05;;;;;;;2.95;2.63;;;;;;;21.73;43.45;94786.13;5032010;28;20225;-67
2023/07/29 00:16:30;;;;;;;2.83;2.35;;;;;;;21.57;43.58;94788.41;5033889;28;20218;-68
2023/07/29 00:18:56;;;;;;;2.55;2.35;;;;;;;21.34;44.33;94794.41;5036608;28;20693;-68
2023/07/29 00:21:21;;;;;;;2.75;2.50;;;;;;;20.91;45.07;94794.47;5034607;28;20225;-67
2023/07/29 00:23:47;;;;;;;3.92;2.78;;;;;;;20.58;45.90;94789.44;5020290;28;20245;-67
2023/07/29 00:26:12;;;;;;;4.05;2.90;;;;;;;20.82;45.40;94793.94;5044737;28;20257;-67
2023/07/29 00:28:38;;;;;;;3.08;2.78;;;;;;;21.17;44.80;94788.03;5033932;28;20282;-67
2023/07/29 00:31:03;;;;;;;3.80;2.92;;;;;;;21.22;44.46;94785.47;5034537;28;20213;-68
2023/07/29 00:33:28;;;;;;;4.13;2.75;;;;;;;21.05;44.90;94790.59;5029245;28;20222;-68
2023/07/29 00:35:54;;;;;;;3.92;2.50;;;;;;;20.96;44.91;94797.31;5033607;28;20273;-67
2023/07/29 00:38:19;;;;;;;5.38;2.45;;;;;;;20.90;45.27;94792.81;5030319;28;20190;-65
2023/07/29 00:40:45;;;;;;;3.88;2.65;;;;;;;20.78;45.84;94789.25;5036602;28;20217;-65
2023/07/29 00:43:11;;;;;;;3.08;2.78;;;;;;;20.69;45.49;94783.38;5033747;28;20236;-65
2023/07/29 00:45:37;;;;;;;4.20;3.17;;;;;;;20.49;46.11;94779.00;5039906;28;20301;-65
2023/07/29 00:48:03;;;;;;;3.70;2.72;;;;;;;20.27;47.05;94773.22;5032367;28;20308;-65
2023/07/29 00:50:31;;;;;;;2.80;2.60;;;;;;;20.36;46.91;94773.75;5045585;28;20187;-66
2023/07/29 00:52:57;;;;;;;3.35;2.72;;;;;;;20.53;46.61;94776.72;5034481;28;20313;-65
2023/07/29 00:55:23;;;;;;;3.15;2.70;;;;;;;20.66;46.54;94773.97;5036542;28;20307;-65
2023/07/29 00:57:51;;;;;;;4.78;2.70;;;;;;;20.78;46.03;94773.22;5032759;28;20240;-66
2023/07/29 01:00:17;;;;;;;3.28;2.30;;;;;;;20.91;45.74;94776.56;5023607;28;20252;-65
2023/07/29 01:02:43;;;;;;;4.63;2.50;;;;;;;20.50;46.56;94771.78;5033678;28;20642;-65
2023/07/29 01:05:12;;;;;;;2.63;2.42;;;;;;;20.47;46.88;94769.56;5033462;28;20193;-65
2023/07/29 01:07:55;;;;;;;3.00;2.60;;;;;;;20.70;46.53;94769.78;5031799;28;20245;-65
2023/07/29 01:10:34;;;;;;;3.85;2.55;;;;;;;20.82;46.06;94767.22;5033884;28;20280;-65
2023/07/29 01:13:22;;;;;;;3.38;2.30;;;;;;;20.79;46.34;94774.84;5036482;28;20352;-66
2023/07/29 01:15:50;;;;;;;3.05;2.75;;;;;;;20.64;46.50;94773.34;5039329;28;20238;-65
2023/07/29 01:18:20;;;;;;;2.60;2.40;;;;;;;20.77;46.75;94768.91;5037978;28;20228;-65
2023/07/29 01:20:48;;;;;;;2.85;2.60;;;;;;;20.70;46.59;94772.47;5030837;28;20201;-65
2023/07/29 01:23:13;;;;;;;2.97;2.70;;;;;;;20.78;46.61;94762.53;5036428;28;20186;-65
2023/07/29 01:25:39;;;;;;;3.08;2.63;;;;;;;20.82;46.56;94769.06;5039056;28;20222;-65
2023/07/29 01:28:04;;;;;;;4.07;3.00;;;;;;;20.79;46.45;94774.84;5032462;28;20272;-65
2023/07/29 01:30:37;;;;;;;3.03;2.70;;;;;;;20.66;46.95;94775.78;5035385;28;20215;-64
2023/07/29 01:33:55;;;;;;;2.95;2.47;;;;;;;20.64;47.10;94780.56;5032130;28;20295;-65
2023/07/29 01:36:25;;;;;;;3.00;2.80;;;;;;;20.54;47.32;94772.22;4954558;28;20229;-64
2023/07/29 01:38:52;;;;;;;3.33;2.58;;;;;;;20.41;47.81;94773.13;4935121;29;20189;-63
2023/07/29 01:41:19;;;;;;;3.13;2.65;;;;;;;20.64;47.21;94773.34;4936825;28;20240;-63
2023/07/29 01:43:46;;;;;;;4.57;2.38;;;;;;;20.67;47.25;94772.91;4952451;28;20237;-63
2023/07/29 01:46:15;;;;;;;3.30;2.78;;;;;;;20.70;46.98;94777.81;4934962;29;20236;-63
2023/07/29 01:48:41;;;;;;;5.45;3.00;;;;;;;20.88;46.75;94768.19;4934410;28;20227;-63
2023/07/29 01:51:07;;;;;;;3.13;2.70;;;;;;;20.78;47.08;94773.22;4958415;28;20226;-63
2023/07/29 01:53:32;;;;;;;4.13;2.97;;;;;;;20.83;46.76;94776.88;4973819;28;20192;-63
2023/07/29 01:55:58;;;;;;;3.08;2.70;;;;;;;20.81;46.94;94775.44;4971831;28;20228;-63
2023/07/29 01:58:24;;;;;;;3.97;3.08;;;;;;;20.81;47.12;94778.13;4973705;28;20239;-63
2023/07/29 02:00:49;;;;;;;5.05;3.60;;;;;;;20.91;46.45;94770.41;4971544;28;20311;-64
2023/07/29 02:03:15;;;;;;;4.82;3.03;;;;;;;20.87;46.72;94770.03;4956393;28;20240;-63
2023/07/29 02:05:42;;;;;;;4.97;3.38;;;;;;;20.58;47.58;94765.38;4972137;28;20279;-63
2023/07/29 02:08:07;;;;;;;3.78;2.90;;;;;;;20.63;47.63;94771.69;4971531;28;20235;-64
2023/07/29 02:10:33;;;;;;;4.18;3.05;;;;;;;20.66;47.49;94768.63;4955086;28;20212;-63
2023/07/29 02:12:58;;;;;;;4.60;3.13;;;;;;;20.60;47.97;94774.81;4983534;28;20230;-64
2023/07/29 02:15:24;;;;;;;3.00;2.80;;;;;;;20.65;47.75;94777.66;5021799;28;20218;-62
2023/07/29 02:17:50;;;;;;;5.00;3.17;;;;;;;20.47;48.12;94777.56;5035022;28;20190;-63
2023/07/29 02:20:16;;;;;;;4.47;3.00;;;;;;;20.35;48.55;94769.47;5021991;28;20238;-63
2023/07/29 02:22:41;;;;;;;4.28;3.08;;;;;;;20.16;49.04;94781.13;5031129;28;20217;-63
2023/07/29 02:25:07;;;;;;;3.38;3.03;;;;;;;20.30;48.75;94792.53;5030716;28;20226;-63
2023/07/29 02:27:33;;;;;;;4.47;3.35;;;;;;;20.33;48.45;94781.41;5028992;28;20588;-63
2023/07/29 02:29:58;;;;;;;6.45;3.20;;;;;;;20.30;48.72;94792.53;5033418;28;20190;-63
2023/07/29 02:32:24;;;;;;;3.65;3.10;;;;;;;20.33;48.65;94789.41;5030469;28;20252;-64
2023/07/29 02:34:49;;;;;;;5.93;3.33;;;;;;;20.37;48.46;94779.91;5031628;28;20210;-64
2023/07/29 02:37:14;;;;;;;3.55;3.22;;;;;;;20.26;47.54;94790.28;5030745;28;20214;-64
2023/07/29 02:39:40;;;;;;;4.28;2.90;;;;;;;20.26;47.28;94786.78;5035569;28;20236;-64
2023/07/29 02:42:05;;;;;;;5.22;2.83;;;;;;;19.47;48.56;94790.75;5032939;28;20214;-65
2023/07/29 02:44:31;;;;;;;3.22;2.92;;;;;;;19.84;47.89;94783.81;5035498;28;20186;-63
2023/07/29 02:46:56;;;;;;;4.70;2.83;;;;;;;20.08;47.56;94782.22;5036715;28;20217;-63
2023/07/29 02:49:23;;;;;;;3.45;3.15;;;;;;;20.01;47.69;94770.75;5030686;28;20220;-63
2023/07/29 02:51:49;;;;;;;3.80;3.00;;;;;;;20.09;47.44;94777.69;5031962;28;20224;-63
2023/07/29 02:54:14;;;;;;;3.40;2.92;;;;;;;20.15;47.37;94784.81;5023090;28;20222;-63
2023/07/29 02:56:40;;;;;;;4.28;3.05;;;;;;;20.01;47.27;94781.44;5031631;28;20474;-64
2023/07/29 02:59:05;;;;;;;7.28;3.33;;;;;;;20.04;47.20;94783.66;5027691;28;20238;-64
2023/07/29 03:01:31;;;;;;;3.15;2.70;;;;;;;19.73;47.23;94785.31;5018750;28;20266;-64
2023/07/29 03:03:56;;;;;;;3.30;3.00;;;;;;;19.73;46.92;94782.66;5010999;28;20226;-63
2023/07/29 03:06:22;;;;;;;3.40;3.05;;;;;;;19.91;47.36;94794.44;5031386;28;20246;-63
2023/07/29 03:08:47;;;;;;;4.15;2.90;;;;;;;19.87;47.71;94787.91;5028371;28;20249;-63
2023/07/29 03:11:15;;;;;;;3.25;2.75;;;;;;;19.91;47.09;94799.75;5031601;28;20186;-63
2023/07/29 03:13:40;;;;;;;3.53;2.78;;;;;;;19.87;47.52;94798.56;5021399;28;20219;-63
2023/07/29 03:16:14;;;;;;;3.15;2.75;;;;;;;19.99;47.04;94802.16;5033879;28;20264;-63
2023/07/29 03:18:41;;;;;;;5.38;2.88;;;;;;;19.96;47.55;94808.75;5026794;28;20216;-63
2023/07/29 03:21:06;;;;;;;3.17;2.88;;;;;;;19.99;48.16;94804.84;5038143;28;20226;-65
2023/07/29 03:23:33;;;;;;;5.68;2.95;;;;;;;19.93;48.00;94808.38;5035885;28;20197;-64
2023/07/29 03:26:00;;;;;;;3.30;2.85;;;;;;;19.83;48.43;94809.69;5023172;28;20227;-63
2023/07/29 03:28:27;;;;;;;3.03;2.78;;;;;;;19.88;48.36;94803.69;5029114;28;20221;-63
2023/07/29 03:30:53;;;;;;;4.18;3.13;;;;;;;19.58;48.89;94804.22;5034494;28;20218;-63
2023/07/29 03:33:19;;;;;;;4.13;2.95;;;;;;;19.46;49.47;94810.44;5031166;28;20223;-64
2023/07/29 03:35:44;;;;;;;5.35;3.08;;;;;;;19.52;49.44;94812.25;5026343;28;20254;-64
2023/07/29 03:38:11;;;;;;;3.05;2.75;;;;;;;19.67;49.13;94818.16;5039311;28;20186;-64
2023/07/29 03:40:37;;;;;;;3.45;3.15;;;;;;;19.68;49.53;94816.31;5030466;28;20250;-64
2023/07/29 03:43:02;;;;;;;3.65;3.35;;;;;;;19.64;49.38;94805.22;5029199;28;20316;-64
2023/07/29 03:45:28;;;;;;;3.42;3.10;;;;;;;19.56;49.84;94808.13;5041375;28;20357;-64
2023/07/29 03:47:53;;;;;;;4.78;2.92;;;;;;;19.29;50.80;94813.56;5032064;28;20191;-64
2023/07/29 03:50:19;;;;;;;3.13;2.83;;;;;;;19.20;51.21;94804.19;5034974;28;20288;-65
2023/07/29 03:52:44;;;;;;;3.30;3.00;;;;;;;19.20;51.20;94811.38;5031935;28;20221;-65
2023/07/29 03:55:09;;;;;;;4.03;3.40;;;;;;;19.23;50.99;94809.09;5035111;28;20244;-65
2023/07/29 03:57:35;;;;;;;5.05;2.95;;;;;;;19.27;51.10;94809.47;5040475;28;20245;-65
2023/07/29 04:00:00;;;;;;;4.22;3.03;;;;;;;19.35;50.75;94807.41;5027414;28;20238;-64
2023/07/29 04:02:26;;;;;;;3.40;3.10;;;;;;;19.49;50.50;94802.84;5033761;28;20186;-64
2023/07/29 04:04:51;;;;;;;4.43;3.90;;;;;;;19.52;49.96;94802.41;5034529;28;20229;-64
2023/07/29 04:07:17;;;;;;;4.85;3.17;;;;;;;19.53;50.24;94808.56;5037087;28;20223;-64
2023/07/29 04:09:43;;;;;;;3.42;3.13;;;;;;;19.40;50.26;94809.44;5035393;28;20217;-65
2023/07/29 04:12:09;;;;;;;3.95;3.50;;;;;;;19.51;49.64;94811.44;5033710;28;20221;-64
2023/07/29 04:14:35;;;;;;;4.35;3.33;;;;;;;19.71;49.29;94822.03;5035290;28;20193;-66
2023/07/29 04:17:00;;;;;;;4.75;3.45;;;;;;;19.81;49.00;94818.94;5033889;28;20273;-64
2023/07/29 04:19:26;;;;;;;5.43;3.60;;;;;;;19.80;48.57;94826.09;5024663;28;20227;-64
2023/07/29 04:21:51;;;;;;;5.22;3.72;;;;;;;19.78;48.73;94820.16;5039669;28;20222;-64
2023/07/29 04:24:17;;;;;;;5.68;3.58;;;;;;;19.83;48.67;94815.00;5046038;28;20257;-64
2023/07/29 04:26:43;;;;;;;4.40;3.70;;;;;;;19.89;47.90;94809.81;5031527;28;20262;-63
2023/07/29 04:29:09;;;;;;;4.78;3.17;;;;;;;19.74;48.36;94813.59;5032417;28;20190;-63
2023/07/29 04:31:34;;;;;;;6.47;2.95;;;;;;;19.88;48.10;94813.53;5032775;28;20218;-63
2023/07/29 04:33:59;;;;;;;3.83;3.30;;;;;;;19.95;47.72;94811.66;5035102;28;20285;-64
2023/07/29 04:36:25;;;;;;;3.47;3.17;;;;;;;20.07;47.57;94811.78;5020088;28;20214;-65
2023/07/29 04:38:50;;;;;;;3.78;3.13;;;;;;;20.05;47.29;94817.34;5014142;28;20187;-65
2023/07/29 04:41:15;;;;;;;3.47;3.03;;;;;;;20.12;46.90;94819.97;5014074;28;20202;-65
2023/07/29 04:43:41;;;;;;;3.28;2.90;;;;;;;20.16;46.38;94818.50;5015060;28;20230;-65
2023/07/29 04:46:08;;;;;;;3.65;3.35;;;;;;;20.19;46.39;94821.56;5024376;28;20222;-64
2023/07/29 04:48:33;;;;;;;3.00;2.70;;;;;;;20.27;46.06;94821.28;5030793;28;20214;-64
2023/07/29 04:50:59;;;;;;;3.92;2.90;;;;;;;20.17;46.11;94817.47;5034465;28;20189;-65
2023/07/29 04:53:24;;;;;;;3.85;2.65;;;;;;;20.14;46.44;94826.72;5033662;28;20206;-63
2023/07/29 04:55:50;;;;;;;3.97;2.50;;;;;;;20.25;45.86;94826.00;5033353;28;20271;-64
2023/07/29 04:58:16;;;;;;;3.10;2.63;;;;;;;20.28;45.88;94830.09;5043462;28;20242;-64
2023/07/29 05:00:41;;;;;;;2.67;2.47;;;;;;;20.44;45.72;94834.09;5038376;28;20230;-65
2023/07/29 05:03:07;;;;;;;3.22;2.67;;;;;;;20.49;45.45;94828.94;5035506;28;20240;-64
2023/07/29 05:05:32;;;;;;;3.90;3.53;;;;;;;19.99;46.28;94835.03;5033787;28;20235;-63
2023/07/29 05:07:57;;;;;;;3.58;3.25;;;;;;;19.89;46.87;94839.19;5037997;28;20305;-63
2023/07/29 05:10:23;;;;;;;4.35;2.97;;;;;;;19.81;46.85;94842.94;5030850;28;20218;-62
2023/07/29 05:12:48;;;;;;;3.20;2.90;;;;;;;20.16;46.35;94846.00;5033212;28;20224;-63
2023/07/29 05:15:14;;;;;;;3.75;3.38;;;;;;;20.37;46.14;94838.66;5029111;28;20211;-63
2023/07/29 05:17:40;;;;;;;3.30;3.00;;;;;;;20.40;45.72;94841.75;5036516;28;20174;-63
2023/07/29 05:20:06;;;;;;;4.20;3.15;;;;;;;20.17;46.10;94842.31;5034912;28;20317;-62
2023/07/29 05:22:31;;;;;;;4.38;2.60;;;;;;;20.33;45.80;94843.63;5033884;28;20218;-63
2023/07/29 05:24:57;;;;;;;3.55;2.75;;;;;;;20.56;45.57;94842.28;5029598;28;20306;-64
2023/07/29 05:27:22;;;;;;;3.40;2.95;;;;;;;20.52;45.66;94843.69;5038051;28;20256;-64
2023/07/29 05:29:47;;;;;;;3.13;2.83;;;;;;;20.65;45.27;94848.97;5033051;28;20213;-64
2023/07/29 05:32:13;;;;;;;2.65;2.45;;;;;;;20.79;44.97;94841.66;5031808;28;20185;-64
2023/07/29 05:34:38;;;;;;;3.20;2.65;;;;;;;20.84;44.51;94839.94;5033218;28;20237;-64
2023/07/29 05:37:04;;;;;;;3.22;2.97;;;;;;;20.94;44.42;94842.13;5034213;28;20218;-64
2023/07/29 05:39:32;;;;;;;3.13;2.67;;;;;;;20.82;44.51;94850.06;5015282;28;20356;-64
2023/07/29 05:41:57;;;;;;;2.97;2.67;;;;;;;20.79;44.54;94847.00;5033021;28;20676;-64
2023/07/29 05:44:22;;;;;;;3.30;2.67;;;;;;;20.89;44.39;94853.47;5039978;28;20190;-64
2023/07/29 05:46:48;;;;;;;3.38;3.08;;;;;;;21.02;44.18;94849.88;5031615;28;20218;-63
2023/07/29 05:49:13;;;;;;;2.92;2.72;;;;;;;21.09;44.09;94853.31;5032045;28;20222;-64
2023/07/29 05:51:39;;;;;;;3.08;2.55;;;;;;;21.06;44.11;94851.06;5032224;28;20593;-64
2023/07/29 05:54:04;;;;;;;3.40;2.97;;;;;;;21.10;43.72;94852.25;5024074;28;20230;-65
2023/07/29 05:56:31;;;;;;;3.47;2.80;;;;;;;21.25;43.50;94854.59;5034579;28;20227;-64
2023/07/29 05:58:56;;;;;;;2.88;2.42;;;;;;;21.25;43.40;94851.06;5034709;28;20236;-64
2023/07/29 06:01:23;;;;;;;2.95;2.72;;;;;;;21.34;43.32;94847.06;5030784;28;20230;-64
2023/07/29 06:03:49;;;;;;;3.22;2.92;;;;;;;21.39;43.01;94852.59;5031029;28;20238;-64
2023/07/29 06:06:14;;;;;;;3.55;2.63;;;;;;;21.10;43.71;94854.13;5036591;28;20218;-65
2023/07/29 06:08:39;;;;;;;3.60;2.85;;;;;;;21.11;44.05;94848.53;5036546;28;20185;-65
2023/07/29 06:11:08;;;;;;;4.40;2.72;;;;;;;21.11;44.17;94848.53;5032426;28;20215;-65
2023/07/29 06:13:33;;;;;;;3.30;2.80;;;;;;;21.08;44.58;94854.31;5035213;28;20210;-64
2023/07/29 06:15:58;;;;;;;3.05;2.85;;;;;;;21.36;43.42;94848.50;5015979;28;20236;-63
2023/07/29 06:18:24;;;;;;;3.85;3.22;;;;;;;21.60;43.13;94846.00;5009124;28;20218;-63
2023/07/29 06:20:50;;;;;;;5.63;5.13;;;;;;;21.67;42.92;94837.88;5008837;28;20218;-64
2023/07/29 06:23:16;;;;;;;3.50;3.20;;;;;;;21.55;43.14;94843.16;5009161;28;20179;-65
2023/07/29 06:25:41;;;;;;;2.92;2.72;;;;;;;21.37;43.33;94841.28;5019122;28;20258;-65
2023/07/29 06:28:07;;;;;;;3.63;3.13;;;;;;;21.61;43.49;94842.25;5023605;28;20228;-63
2023/07/29 06:30:32;;;;;;;4.38;3.03;;;;;;;21.76;43.02;94837.34;5027964;28;20225;-66
2023/07/29 06:32:57;;;;;;;3.65;2.80;;;;;;;21.87;42.41;94834.94;5031408;28;20174;-66
2023/07/29 06:35:23;;;;;;;2.88;2.67;;;;;;;21.98;42.19;94831.50;5032556;28;20687;-66
2023/07/29 06:37:49;;;;;;;3.25;2.95;;;;;;;21.91;42.81;94833.44;5027257;28;20224;-66
2023/07/29 06:40:14;;;;;;;5.43;3.97;;;;;;;21.94;42.69;94828.44;5030557;28;20222;-65
2023/07/29 06:42:40;;;;;;;3.58;2.90;;;;;;;22.03;42.35;94826.28;5029449;28;20225;-66
2023/07/29 06:45:06;;;;;;;3.30;3.05;;;;;;;21.70;42.49;94821.34;5029476;28;20221;-64
2023/07/29 06:47:32;;;;;;;5.30;4.10;;;;;;;21.85;42.88;94824.47;5029946;28;20178;-66
2023/07/29 06:49:57;;;;;;;3.88;3.47;;;;;;;21.70;43.62;94816.00;5028300;28;20836;-67
2023/07/29 06:52:22;;;;;;;4.07;2.85;;;;;;;21.75;44.15;94821.50;5025494;28;20232;-67
2023/07/29 06:54:48;;;;;;;4.35;3.95;;;;;;;21.69;43.77;94814.38;5038548;28;20234;-68
2023/07/29 06:57:13;;;;;;;3.60;3.15;;;;;;;21.72;43.81;94821.97;5033201;28;20244;-68
2023/07/29 06:59:39;;;;;;;5.85;3.20;;;;;;;21.75;43.33;94816.16;5032721;28;20301;-67
2023/07/29 07:02:05;;;;;;;3.65;3.20;;;;;;;21.80;43.63;94821.63;5029815;28;20237;-67
2023/07/29 07:04:30;;;;;;;4.68;3.45;;;;;;;21.89;43.32;94822.13;5026546;28;20296;-66
2023/07/29 07:06:56;;;;;;;5.88;3.45;;;;;;;21.86;43.46;94818.06;5033431;28;20217;-68
2023/07/29 07:09:21;;;;;;;4.22;3.08;;;;;;;21.75;43.66;94819.63;5036014;28;20224;-67
2023/07/29 07:11:46;;;;;;;4.43;3.60;;;;;;;21.80;43.77;94824.31;5032173;28;20186;-68
2023/07/29 07:14:12;;;;;;;4.15;3.30;;;;;;;21.93;43.80;94823.34;5033822;28;20191;-67
2023/07/29 07:16:39;;;;;;;4.45;3.55;;;;;;;22.09;43.64;94821.88;5035890;28;20222;-67
2023/07/29 07:19:04;;;;;;;5.22;3.20;;;;;;;22.44;43.40;94825.47;5030588;28;20219;-68
2023/07/29 07:21:30;;;;;;;4.57;3.60;;;;;;;22.50;42.86;94822.94;5029950;28;20217;-67
2023/07/29 07:23:55;;;;;;;5.60;3.45;;;;;;;22.51;43.50;94821.88;5031662;28;20190;-68
2023/07/29 07:26:21;;;;;;;4.22;3.55;;;;;;;22.64;42.50;94816.28;5035747;28;20336;-67
2023/07/29 07:28:46;;;;;;;4.13;3.10;;;;;;;22.53;42.08;94807.19;5031091;28;20210;-70
2023/07/29 07:31:12;;;;;;;4.93;3.70;;;;;;;22.56;42.29;94805.91;5033127;28;20248;-68
2023/07/29 07:33:37;;;;;;;3.70;3.40;;;;;;;22.61;42.30;94811.41;5032226;28;20268;-68
2023/07/29 07:36:03;;;;;;;4.78;3.33;;;;;;;22.71;42.48;94800.94;5033596;28;20226;-68
2023/07/29 07:38:28;;;;;;;4.07;3.67;;;;;;;22.89;41.69;94805.38;5033565;28;20183;-68
2023/07/29 07:40:55;;;;;;;3.70;3.40;;;;;;;22.90;41.70;94805.13;5035961;28;20786;-68
2023/07/29 07:43:21;;;;;;;5.03;3.83;;;;;;;22.89;41.72;94805.38;5051535;28;20229;-67
2023/07/29 07:45:47;;;;;;;5.00;3.60;;;;;;;22.95;41.64;94804.44;5029852;28;20218;-67
2023/07/29 07:48:13;;;;;;;3.97;3.58;;;;;;;22.97;41.74;94806.91;5034949;28;20313;-67
2023/07/29 07:50:39;;;;;;;5.03;3.88;;;;;;;23.19;41.71;94810.63;5043609;28;20270;-67
2023/07/29 07:53:04;;;;;;;7.63;4.20;;;;;;;23.52;40.52;94815.34;5030674;28;20222;-69
2023/07/29 07:55:30;;;;;;;4.68;3.75;;;;;;;23.22;41.20;94809.34;5027033;28;20925;-69
2023/07/29 07:57:55;;;;;;;4.95;3.67;;;;;;;23.21;41.07;94805.03;5026933;28;20214;-69
2023/07/29 08:00:21;;;;;;;4.30;3.85;;;;;;;23.33;41.13;94808.50;5031340;28;20251;-67
2023/07/29 08:02:46;;;;;;;5.95;3.40;;;;;;;23.38;41.34;94808.59;5032043;28;20182;-68
2023/07/29 08:05:12;;;;;;;5.50;3.70;;;;;;;23.43;41.31;94808.72;5029827;28;20670;-68
2023/07/29 08:07:37;;;;;;;7.47;3.65;;;;;;;23.54;40.59;94812.41;5036435;28;20214;-67
2023/07/29 08:10:03;;;;;;;5.03;4.10;;;;;;;23.60;40.65;94811.44;5030198;28;20215;-66
2023/07/29 08:12:28;;;;;;;5.88;3.95;;;;;;;23.65;39.98;94806.19;5031216;28;20258;-67
2023/07/29 08:14:53;;;;;;;5.03;3.70;;;;;;;23.82;40.26;94814.34;5031591;28;20191;-68
2023/07/29 08:17:19;;;;;;;5.50;4.07;;;;;;;23.84;39.90;94814.91;5031363;28;20213;-68
2023/07/29 08:19:44;;;;;;;4.70;3.95;;;;;;;23.86;40.07;94815.50;5026698;28;20242;-67
2023/07/29 08:22:10;;;;;;;3.53;3.22;;;;;;;23.86;39.49;94820.06;5024188;28;20248;-68
2023/07/29 08:24:35;;;;;;;4.22;3.80;;;;;;;23.93;39.73;94826.09;5034846;28;20210;-67
2023/07/29 08:27:01;;;;;;;5.82;3.53;;;;;;;23.98;39.04;94810.91;5032987;28;20187;-67
2023/07/29 08:29:26;;;;;;;4.10;3.45;;;;;;;23.98;39.16;94815.47;5039372;28;20194;-67
2023/07/29 08:31:52;;;;;;;4.75;3.72;;;;;;;24.10;38.66;94813.53;5033830;28;20462;-67
2023/07/29 08:34:18;;;;;;;3.45;3.15;;;;;;;24.12;38.71;94808.72;5033303;28;20230;-67
2023/07/29 08:36:43;;;;;;;3.53;3.22;;;;;;;24.15;38.84;94810.13;5039363;28;20248;-68
2023/07/29 08:39:09;;;;;;;3.30;3.00;;;;;;;24.10;39.02;94805.47;5029181;28;20257;-68
2023/07/29 08:41:52;;;;;;;5.57;3.35;;;;;;;24.35;38.04;94802.44;5036473;28;20313;-67
2023/07/29 08:44:23;;;;;;;5.70;3.10;;;;;;;24.37;38.16;94805.66;5032913;28;20218;-68
2023/07/29 08:46:49;;;;;;;4.50;3.47;;;;;;;24.58;37.32;94801.47;5030022;28;20217;-67
2023/07/29 08:49:18;;;;;;;4.15;3.42;;;;;;;24.52;37.03;94801.66;5033067;28;20238;-67
2023/07/29 08:51:46;;;;;;;4.15;3.33;;;;;;;24.37;37.58;94794.91;5035444;28;20232;-68
2023/07/29 08:54:13;;;;;;;5.78;3.50;;;;;;;24.40;36.72;94791.75;5031927;28;20214;-68
2023/07/29 08:56:40;;;;;;;3.90;2.90;;;;;;;24.45;36.51;94791.03;5036032;28;20209;-67
2023/07/29 08:59:07;;;;;;;3.95;2.70;;;;;;;24.61;36.13;94792.91;5031689;28;20245;-67
2023/07/29 09:01:32;;;;;;;3.53;2.30;;;;;;;24.65;35.68;94775.25;5032004;28;20305;-67
2023/07/29 09:03:58;;;;;;;3.40;2.60;;;;;;;24.63;35.67;94792.69;5037573;28;20249;-68
2023/07/29 09:06:25;;;;;;;2.80;2.60;;;;;;;24.80;35.48;94781.91;5035970;28;20278;-67
2023/07/29 09:08:53;;;;;;;3.35;2.53;;;;;;;24.98;35.59;94778.13;5032761;28;20178;-68
2023/07/29 09:11:20;;;;;;;3.03;2.75;;;;;;;25.08;35.16;94776.41;5036129;28;20201;-67
2023/07/29 09:13:45;;;;;;;2.40;2.20;;;;;;;24.94;33.58;94780.53;5032642;28;20225;-67
2023/07/29 09:16:11;;;;;;;3.75;2.35;;;;;;;24.97;33.58;94776.53;5049563;28;20233;-67
2023/07/29 09:18:37;;;;;;;2.95;2.10;;;;;;;24.90;33.86;94776.69;5016775;28;20344;-68
2023/07/29 09:21:03;;;;;;;3.03;2.22;;;;;;;24.96;34.30;94769.50;5034670;28;20225;-67
2023/07/29 09:23:38;;;;;;;2.35;2.15;;;;;;;25.25;33.45;94762.13;5034279;28;20194;-67
2023/07/29 09:26:03;;;;;;;2.85;2.50;;;;;;;25.38;33.81;94758.25;5027166;28;20269;-67
2023/07/29 09:28:34;;;;;;;2.53;2.33;;;;;;;25.52;33.53;94759.50;5014614;28;20222;-67
2023/07/29 09:30:59;;;;;;;3.35;2.35;;;;;;;25.46;32.64;94755.94;5018852;28;20227;-67
2023/07/29 09:33:29;;;;;;;2.50;2.00;;;;;;;25.83;31.96;94757.97;5037429;28;20221;-67
2023/07/29 09:35:54;;;;;;;2.25;2.05;;;;;;;25.63;32.35;94755.84;5033881;28;20202;-67
2023/07/29 09:38:27;;;;;;;2.35;2.13;;;;;;;25.69;32.48;94751.34;5036277;28;20193;-68
2023/07/29 09:40:55;;;;;;;1.80;1.70;;;;;;;25.83;31.56;94757.97;5039296;28;20226;-68
2023/07/29 09:43:26;;;;;;;2.70;1.90;;;;;;;25.84;31.61;94753.41;5017585;28;20226;-68
2023/07/29 09:45:52;;;;;;;3.88;2.08;;;;;;;25.82;31.01;94745.56;5031941;28;20221;-67
2023/07/29 09:48:22;;;;;;;2.30;2.10;;;;;;;25.94;31.33;94750.81;5034568;28;20218;-67
2023/07/29 09:50:48;;;;;;;4.22;2.30;;;;;;;26.12;31.24;94749.66;5032027;28;20189;-67
2023/07/29 09:53:14;;;;;;;3.35;2.00;;;;;;;26.29;31.21;94741.44;5032985;28;20182;-69
2023/07/29 09:55:45;;;;;;;2.42;2.10;;;;;;;26.46;31.49;94734.03;5034602;28;20215;-67
2023/07/29 09:58:11;;;;;;;2.35;2.15;;;;;;;26.51;30.78;94738.66;5036376;28;20234;-67
2023/07/29 10:00:38;;;;;;;2.20;2.10;;;;;;;26.61;30.97;94738.75;5033306;28;20225;-67
2023/07/29 10:03:04;;;;;;;8.77;1.90;;;;;;;26.58;30.61;94734.69;5030911;28;20225;-67
2023/07/29 10:05:30;;;;;;;1.60;1.50;;;;;;;26.69;29.95;94732.06;5035538;28;20198;-66
2023/07/29 10:07:56;;;;;;;1.90;1.67;;;;;;;26.80;29.85;94731.88;5027805;28;20219;-67
2023/07/29 10:10:22;;;;;;;2.80;1.73;;;;;;;26.91;30.42;94724.66;5024440;28;20215;-67
2023/07/29 10:12:49;;;;;;;2.55;2.30;;;;;;;27.01;30.89;94735.50;5013061;28;20214;-67
2023/07/29 10:15:15;;;;;;;2.65;1.90;;;;;;;27.09;29.91;94725.31;5018364;28;20662;-67
2023/07/29 10:17:40;;;;;;;3.30;1.67;;;;;;;26.99;28.60;94728.75;5012416;28;20198;-68
2023/07/29 10:20:08;;;;;;;1.73;1.40;;;;;;;27.10;28.91;94719.63;5023617;28;20231;-67
2023/07/29 10:22:42;;;;;;;2.00;1.90;;;;;;;27.22;29.00;94711.34;5036703;28;20218;-67
2023/07/29 10:25:08;;;;;;;2.53;2.08;;;;;;;27.49;28.58;94713.88;5031079;28;20253;-66
2023/07/29 10:28:03;;;;;;;1.95;1.52;;;;;;;27.53;28.29;94709.56;5033363;28;20230;-67
2023/07/29 10:30:28;;;;;;;1.52;1.30;;;;;;;27.89;26.77;94697.00;5028107;28;20279;-67
2023/07/29 10:32:58;;;;;;;1.65;1.50;;;;;;;27.87;27.59;94698.34;5018939;28;20288;-67
2023/07/29 10:35:23;;;;;;;1.60;1.50;;;;;;;27.88;28.38;94692.69;5011712;28;20280;-67
2023/07/29 10:37:50;;;;;;;1.80;1.60;;;;;;;27.98;27.58;94696.47;5034892;28;20332;-67
2023/07/29 10:40:17;;;;;;;2.92;1.50;;;;;;;28.08;27.56;94691.88;5034794;28;20384;-69
2023/07/29 10:43:10;;;;;;;2.25;1.48;;;;;;;28.19;27.18;94683.78;5054654;28;20280;-68
2023/07/29 10:45:42;;;;;;;1.88;1.48;;;;;;;28.28;26.52;94688.38;5034353;28;20327;-67
2023/07/29 10:48:11;;;;;;;1.60;1.50;;;;;;;28.32;26.52;94684.03;5037631;28;20682;-68
2023/07/29 10:50:37;;;;;;;1.92;1.50;;;;;;;28.46;26.50;94683.53;5040852;28;20180;-67
2023/07/29 10:53:02;;;;;;;1.63;1.52;;;;;;;28.59;26.34;94672.94;5060156;28;20224;-67
2023/07/29 10:55:32;;;;;;;1.67;1.58;;;;;;;28.53;26.41;94679.47;5036548;28;20308;-66
2023/07/29 10:58:11;;;;;;;1.83;1.55;;;;;;;28.60;26.05;94671.03;5037763;28;20221;-68
2023/07/29 11:00:36;;;;;;;1.70;1.60;;;;;;;28.73;26.11;94673.19;5037068;28;21039;-68
2023/07/29 11:03:04;;;;;;;3.38;1.67;;;;;;;28.81;26.05;94669.13;5052526;28;20410;-68
2023/07/29 11:05:50;;;;;;;2.65;1.60;;;;;;;28.99;26.11;94679.34;5038328;28;20243;-67
2023/07/29 11:08:22;;;;;;;1.52;1.40;;;;;;;28.91;24.74;94662.88;5041003;28;20221;-67
2023/07/29 11:11:08;;;;;;;1.38;1.27;;;;;;;28.85;24.36;94670.19;5033271;28;20231;-67
2023/07/29 11:13:38;;;;;;;1.63;1.52;;;;;;;28.91;25.08;94657.47;5041604;28;20225;-67
2023/07/29 11:16:04;;;;;;;2.67;1.50;;;;;;;28.93;25.88;94656.09;5038620;28;20218;-68
2023/07/29 11:18:35;;;;;;;1.45;1.35;;;;;;;28.98;25.12;94653.38;5036767;28;20225;-67
2023/07/29 11:21:01;;;;;;;1.55;1.27;;;;;;;29.07;24.80;94653.63;5036605;28;20241;-68
2023/07/29 11:23:35;;;;;;;2.03;1.30;;;;;;;29.13;25.20;94651.72;5028089;28;20194;-68
2023/07/29 11:26:01;;;;;;;1.33;1.23;;;;;;;29.29;24.77;94653.28;5042561;28;20217;-67
2023/07/29 11:28:27;;;;;;;2.00;1.20;;;;;;;29.45;24.69;94646.69;5039242;28;20229;-67
2023/07/29 11:30:55;;;;;;;1.40;1.30;;;;;;;29.62;24.03;94661.78;5037600;28;20219;-68
2023/07/29 11:33:22;;;;;;;1.67;1.50;;;;;;;29.66;23.45;94652.81;5047637;28;20302;-66